Time;durP1;ratioP1;P1;durP2;ratioP2;P2;SDS_P1;SDS_P2;PMS_P1;PMS_P2;Temp;Humidity;BMP_temperature;BMP_pressure;BME280_temperature;BME280_humidity;BME280_pressure;Samples;Min_cycle;Max_cycle;Signal;HPM_P1;HPM_P2
2022/03/20 00:00:05;;;;;;;26.37;22.13;;;5.90;69.20;;;;;;5072109;28;20209;-50
2022/03/20 00:02:32;;;;;;;26.07;22.23;;;5.90;69.40;;;;;;5072232;28;20201;-49
2022/03/20 00:05:00;;;;;;;28.00;22.53;;;5.80;69.60;;;;;;5072370;28;20158;-50
2022/03/20 00:07:26;;;;;;;28.23;22.83;;;5.90;69.80;;;;;;5072498;28;20212;-50
2022/03/20 00:09:52;;;;;;;26.90;22.20;;;5.80;70.30;;;;;;5071592;28;20171;-48
2022/03/20 00:12:18;;;;;;;25.73;22.03;;;5.80;70.50;;;;;;5071947;28;20720;-52
2022/03/20 00:14:44;;;;;;;27.27;22.93;;;5.80;70.60;;;;;;5072281;28;20228;-47
2022/03/20 00:17:09;;;;;;;25.33;22.40;;;5.80;71.10;;;;;;5069061;28;20269;-48
2022/03/20 00:19:35;;;;;;;25.47;21.80;;;5.80;71.20;;;;;;5071460;28;20289;-48
2022/03/20 00:22:00;;;;;;;26.03;22.60;;;5.80;71.30;;;;;;5071665;28;20282;-47
2022/03/20 00:24:27;;;;;;;26.40;21.93;;;5.80;71.50;;;;;;5071312;28;20200;-47
2022/03/20 00:26:56;;;;;;;25.93;22.63;;;5.80;71.70;;;;;;5071922;28;20174;-48
2022/03/20 00:29:24;;;;;;;24.27;20.90;;;5.80;71.90;;;;;;5072023;28;20253;-47
2022/03/20 00:31:49;;;;;;;26.47;22.03;;;5.80;72.10;;;;;;5071891;28;20582;-47
2022/03/20 00:34:15;;;;;;;27.07;22.53;;;5.70;72.30;;;;;;5071381;28;20274;-47
2022/03/20 00:36:40;;;;;;;28.17;23.60;;;5.80;72.50;;;;;;5071642;28;20181;-47
2022/03/20 00:39:06;;;;;;;25.77;21.83;;;5.80;72.70;;;;;;5071756;28;20582;-48
2022/03/20 00:41:31;;;;;;;26.70;22.50;;;5.80;73.00;;;;;;5071512;28;20206;-48
2022/03/20 00:43:58;;;;;;;28.80;23.53;;;5.70;73.20;;;;;;5071377;28;20167;-47
2022/03/20 00:46:24;;;;;;;25.07;21.47;;;5.70;73.20;;;;;;5071834;28;20178;-47
2022/03/20 00:48:50;;;;;;;27.67;22.50;;;5.80;73.50;;;;;;5071777;28;20178;-49
2022/03/20 00:51:15;;;;;;;26.57;22.00;;;5.70;73.60;;;;;;5070984;28;20208;-50
2022/03/20 00:53:41;;;;;;;25.33;21.57;;;5.70;73.80;;;;;;5071539;28;20217;-48
2022/03/20 00:56:07;;;;;;;27.40;22.20;;;5.70;74.10;;;;;;5071510;28;20179;-47
2022/03/20 00:58:33;;;;;;;25.53;21.90;;;5.70;74.30;;;;;;5071711;28;20196;-50
2022/03/20 01:00:59;;;;;;;27.27;22.70;;;5.70;74.30;;;;;;5053733;28;20178;-50
2022/03/20 01:03:25;;;;;;;26.33;22.53;;;5.70;74.90;;;;;;5071297;28;20171;-49
2022/03/20 01:05:53;;;;;;;27.00;22.73;;;5.70;75.00;;;;;;5071719;28;20170;-47
2022/03/20 01:08:18;;;;;;;25.53;21.70;;;5.70;75.40;;;;;;5072188;28;20166;-47
2022/03/20 01:10:44;;;;;;;26.13;22.73;;;5.70;75.60;;;;;;5071299;28;20185;-51
2022/03/20 01:13:10;;;;;;;26.23;21.57;;;5.60;76.00;;;;;;5071128;28;20186;-47
2022/03/20 01:15:35;;;;;;;25.83;21.23;;;5.60;76.60;;;;;;5071569;28;20257;-48
2022/03/20 01:18:01;;;;;;;27.20;21.97;;;5.60;76.90;;;;;;5071455;28;20167;-48
2022/03/20 01:20:27;;;;;;;27.23;22.23;;;5.50;77.30;;;;;;5073643;28;20202;-48
2022/03/20 01:22:52;;;;;;;26.07;21.97;;;5.60;77.40;;;;;;5075262;28;20185;-48
2022/03/20 01:25:18;;;;;;;26.43;22.20;;;5.60;77.60;;;;;;5075187;28;20228;-48
2022/03/20 01:27:44;;;;;;;24.93;21.60;;;5.50;77.80;;;;;;5075537;28;20174;-48
2022/03/20 01:30:10;;;;;;;23.53;20.77;;;5.50;77.90;;;;;;5075287;28;20174;-49
2022/03/20 01:32:35;;;;;;;25.47;22.27;;;5.60;78.00;;;;;;5075193;28;20200;-49
2022/03/20 01:35:01;;;;;;;27.80;21.67;;;5.50;78.40;;;;;;5075260;28;20261;-48
2022/03/20 01:37:27;;;;;;;25.93;22.17;;;5.50;78.50;;;;;;5075487;28;20178;-48
2022/03/20 01:39:53;;;;;;;24.70;21.83;;;5.50;78.70;;;;;;5072188;28;20214;-48
2022/03/20 01:42:21;;;;;;;25.77;20.67;;;5.50;78.80;;;;;;5074522;28;20217;-46
2022/03/20 01:44:47;;;;;;;28.63;23.20;;;5.50;78.80;;;;;;5074480;28;20171;-47
2022/03/20 01:47:13;;;;;;;23.50;20.17;;;5.50;79.10;;;;;;5074861;28;20220;-47
2022/03/20 01:49:39;;;;;;;25.77;20.70;;;5.40;79.30;;;;;;5074724;28;20178;-48
2022/03/20 01:52:11;;;;;;;25.23;20.63;;;5.40;79.40;;;;;;5074731;28;20208;-47
2022/03/20 01:54:38;;;;;;;24.60;20.13;;;5.40;79.40;;;;;;5074629;28;20178;-48
2022/03/20 01:57:07;;;;;;;24.47;20.57;;;5.40;79.40;;;;;;5074561;28;20178;-48
2022/03/20 01:59:32;;;;;;;23.00;19.60;;;5.40;79.20;;;;;;5056698;28;20209;-47
2022/03/20 02:01:58;;;;;;;24.03;20.40;;;5.40;79.10;;;;;;5074589;28;20195;-52
2022/03/20 02:04:23;;;;;;;23.43;19.83;;;5.40;79.30;;;;;;5074670;28;20178;-51
2022/03/20 02:06:49;;;;;;;23.37;19.73;;;5.40;79.40;;;;;;5074621;28;20240;-49
2022/03/20 02:09:16;;;;;;;24.87;19.03;;;5.40;79.00;;;;;;5074616;28;20216;-50
2022/03/20 02:11:44;;;;;;;22.70;18.97;;;5.40;78.90;;;;;;5074408;28;20289;-47
2022/03/20 02:14:09;;;;;;;22.50;19.07;;;5.40;78.80;;;;;;5074039;28;20566;-47
2022/03/20 02:16:35;;;;;;;22.43;19.47;;;5.40;78.70;;;;;;5074395;28;20178;-48
2022/03/20 02:19:04;;;;;;;22.17;19.10;;;5.40;78.70;;;;;;5074402;28;20198;-49
2022/03/20 02:21:39;;;;;;;22.40;19.17;;;5.40;78.50;;;;;;5074258;28;20571;-48
2022/03/20 02:24:29;;;;;;;23.53;19.33;;;5.30;78.10;;;;;;5056390;28;20247;-47
2022/03/20 02:27:06;;;;;;;22.90;19.47;;;5.30;78.20;;;;;;5074317;28;20309;-49
2022/03/20 02:29:31;;;;;;;21.60;18.90;;;5.30;78.20;;;;;;5074308;28;20181;-51
2022/03/20 02:32:01;;;;;;;21.70;18.57;;;5.20;78.10;;;;;;5055222;28;20543;-47
2022/03/20 02:34:28;;;;;;;22.03;19.23;;;5.20;78.20;;;;;;5074249;28;20259;-47
2022/03/20 02:36:55;;;;;;;19.97;17.63;;;5.20;77.90;;;;;;5074277;28;20178;-49
2022/03/20 02:39:20;;;;;;;21.90;17.80;;;5.20;77.60;;;;;;5074018;28;20339;-51
2022/03/20 02:41:48;;;;;;;21.53;18.10;;;5.20;77.30;;;;;;5074157;28;20277;-49
2022/03/20 02:44:14;;;;;;;21.53;17.80;;;5.20;77.30;;;;;;5073688;28;20259;-50
2022/03/20 02:46:40;;;;;;;20.77;17.60;;;5.20;77.00;;;;;;5074100;28;20194;-50
2022/03/20 02:49:09;;;;;;;22.10;18.07;;;5.20;76.90;;;;;;5073364;28;20232;-48
2022/03/20 02:51:36;;;;;;;19.30;17.13;;;5.20;76.50;;;;;;5074019;28;20210;-51
2022/03/20 02:54:02;;;;;;;20.77;17.20;;;5.20;76.50;;;;;;5073754;28;20209;-51
2022/03/20 02:56:29;;;;;;;20.53;17.60;;;5.20;76.20;;;;;;5074053;28;20175;-53
2022/03/20 02:58:55;;;;;;;18.20;16.07;;;5.20;75.90;;;;;;5073632;28;20198;-49
2022/03/20 03:01:21;;;;;;;22.30;16.57;;;5.20;76.00;;;;;;5073599;28;20206;-48
2022/03/20 03:03:46;;;;;;;20.00;16.73;;;5.20;76.00;;;;;;5070744;28;20182;-47
2022/03/20 03:06:13;;;;;;;19.83;16.60;;;5.20;75.90;;;;;;5073263;28;20210;-52
2022/03/20 03:11:23;;;;;;;20.03;16.63;;;5.20;75.80;;;;;;5073665;28;20247;-51
2022/03/20 03:13:48;;;;;;;20.47;16.53;;;5.10;76.20;;;;;;5072767;28;20198;-49
2022/03/20 03:16:15;;;;;;;18.47;16.47;;;5.10;75.40;;;;;;5055363;28;20193;-50
2022/03/20 03:18:44;;;;;;;21.20;17.40;;;5.00;75.50;;;;;;5073360;28;20203;-53
2022/03/20 03:21:11;;;;;;;20.87;16.30;;;5.10;75.50;;;;;;5072711;28;20198;-49
2022/03/20 03:23:37;;;;;;;18.73;16.30;;;5.00;75.50;;;;;;5072927;28;20175;-50
2022/03/20 03:26:04;;;;;;;17.97;15.77;;;5.10;75.40;;;;;;5073155;28;20595;-48
2022/03/20 03:28:36;;;;;;;19.63;16.77;;;5.10;75.30;;;;;;5073191;28;20167;-50
2022/03/20 03:31:07;;;;;;;19.10;16.67;;;5.00;75.20;;;;;;5073446;28;20202;-48
2022/03/20 03:33:34;;;;;;;21.87;16.43;;;5.00;75.10;;;;;;5072989;28;20174;-49
2022/03/20 03:36:01;;;;;;;18.17;15.03;;;5.00;75.20;;;;;;5072926;28;20171;-49
2022/03/20 03:38:34;;;;;;;18.57;15.37;;;4.90;75.10;;;;;;5072604;28;20550;-47
2022/03/20 03:40:59;;;;;;;20.27;16.30;;;4.90;74.80;;;;;;5072652;28;20170;-50
2022/03/20 03:43:25;;;;;;;18.30;15.50;;;4.90;74.80;;;;;;5072701;28;20659;-49
2022/03/20 03:45:53;;;;;;;18.23;15.07;;;4.90;74.70;;;;;;5072926;28;20180;-51
2022/03/20 03:48:19;;;;;;;19.00;15.50;;;4.90;74.70;;;;;;5073124;28;20169;-47
2022/03/20 03:50:46;;;;;;;17.70;15.43;;;4.90;74.60;;;;;;5072687;28;20171;-49
2022/03/20 03:53:12;;;;;;;18.53;15.40;;;4.90;74.40;;;;;;5072172;28;20673;-52
2022/03/20 03:55:43;;;;;;;18.73;15.63;;;4.90;74.60;;;;;;5072837;28;20208;-49
2022/03/20 03:58:08;;;;;;;19.53;15.07;;;4.80;74.60;;;;;;5072740;28;20198;-49
2022/03/20 04:00:34;;;;;;;18.50;15.13;;;4.80;74.30;;;;;;5072657;28;20241;-49
2022/03/20 04:03:00;;;;;;;18.47;15.37;;;4.80;74.10;;;;;;5071018;28;20194;-46
2022/03/20 04:05:27;;;;;;;19.73;16.20;;;4.80;74.00;;;;;;5071823;28;20245;-48
2022/03/20 04:07:53;;;;;;;18.13;14.73;;;4.80;74.00;;;;;;5070627;28;20666;-51
2022/03/20 04:10:18;;;;;;;18.37;15.33;;;4.80;73.80;;;;;;5071794;28;20258;-47
2022/03/20 04:12:44;;;;;;;18.37;15.23;;;4.80;73.70;;;;;;5071314;28;20214;-52
2022/03/20 04:15:11;;;;;;;16.53;14.73;;;4.80;73.40;;;;;;5072339;28;20178;-47
2022/03/20 04:17:37;;;;;;;17.03;14.50;;;4.80;73.50;;;;;;5054373;28;20316;-48
2022/03/20 04:20:04;;;;;;;19.47;15.23;;;4.80;73.40;;;;;;5072070;28;20194;-48
2022/03/20 04:22:30;;;;;;;18.87;15.50;;;4.80;73.40;;;;;;5071597;28;20202;-48
2022/03/20 04:24:56;;;;;;;17.70;14.27;;;4.70;73.30;;;;;;5072377;28;20249;-51
2022/03/20 04:27:22;;;;;;;17.63;14.30;;;4.70;73.20;;;;;;5069480;28;20171;-47
2022/03/20 04:29:48;;;;;;;17.40;14.10;;;4.70;72.80;;;;;;5071275;28;20578;-48
2022/03/20 04:32:14;;;;;;;17.07;14.57;;;4.80;72.40;;;;;;5071283;28;20239;-44
2022/03/20 04:34:41;;;;;;;17.17;14.50;;;4.70;72.40;;;;;;5071525;28;20185;-47
2022/03/20 04:37:09;;;;;;;16.30;13.33;;;4.70;72.40;;;;;;5071532;28;20201;-48
2022/03/20 04:39:35;;;;;;;16.37;13.97;;;4.80;72.50;;;;;;5071868;28;20210;-47
2022/03/20 04:42:02;;;;;;;16.93;14.23;;;4.80;72.30;;;;;;5071822;28;20272;-52
2022/03/20 04:44:27;;;;;;;16.73;13.60;;;4.70;72.30;;;;;;5071224;28;20646;-48
2022/03/20 04:46:53;;;;;;;20.67;14.60;;;4.70;72.00;;;;;;5071634;28;20262;-47
2022/03/20 05:00:23;;;;;;;18.90;14.50;;;4.60;71.90;;;;;;5071484;28;20213;-47
2022/03/20 05:02:49;;;;;;;17.47;13.60;;;4.60;71.40;;;;;;5071204;28;20589;-49
2022/03/20 05:05:15;;;;;;;16.37;12.80;;;4.60;71.70;;;;;;5071713;28;20249;-47
2022/03/20 05:07:41;;;;;;;17.13;13.37;;;4.60;71.80;;;;;;5071624;28;20695;-49
2022/03/20 05:15:36;;;;;;;15.47;13.17;;;4.60;71.70;;;;;;5073102;28;20665;-50
2022/03/20 05:18:03;;;;;;;17.67;14.03;;;4.50;71.80;;;;;;5071430;28;20182;-47
2022/03/20 05:20:28;;;;;;;18.57;13.43;;;4.50;71.60;;;;;;5071391;28;20202;-48
2022/03/20 05:22:54;;;;;;;15.20;13.60;;;4.50;71.40;;;;;;5052976;28;20683;-47
2022/03/20 05:25:20;;;;;;;15.27;12.97;;;4.50;71.70;;;;;;5071500;28;20561;-47
2022/03/20 05:27:46;;;;;;;15.37;13.03;;;4.60;71.40;;;;;;5071380;28;20167;-47
2022/03/20 05:30:12;;;;;;;16.43;13.90;;;4.50;71.50;;;;;;5071396;28;20254;-48
2022/03/20 05:32:38;;;;;;;14.37;12.40;;;4.50;71.60;;;;;;5071014;28;20276;-47
2022/03/20 05:35:06;;;;;;;17.27;13.40;;;4.60;71.70;;;;;;5071094;28;20182;-48
2022/03/20 05:37:32;;;;;;;14.27;12.77;;;4.50;71.30;;;;;;5071087;28;20175;-47
2022/03/20 05:39:58;;;;;;;14.80;13.10;;;4.50;71.70;;;;;;5071255;28;20206;-49
2022/03/20 05:42:24;;;;;;;15.57;13.63;;;4.60;71.50;;;;;;5071033;28;20189;-49
2022/03/20 05:44:50;;;;;;;16.47;13.70;;;4.60;71.70;;;;;;5071196;28;20171;-47
2022/03/20 05:47:16;;;;;;;17.30;14.13;;;4.60;71.30;;;;;;5071372;28;20177;-47
2022/03/20 05:49:42;;;;;;;15.97;13.20;;;4.60;71.30;;;;;;5069105;28;20972;-48
2022/03/20 05:52:08;;;;;;;15.33;13.10;;;4.60;71.30;;;;;;5069603;28;20760;-46
2022/03/20 05:54:34;;;;;;;14.37;12.47;;;4.60;71.30;;;;;;5069874;28;20178;-51
2022/03/20 05:59:44;;;;;;;14.97;12.47;;;4.70;70.90;;;;;;5070637;28;20209;-48
2022/03/20 06:02:10;;;;;;;16.07;12.57;;;4.70;71.40;;;;;;5073547;28;20190;-48
2022/03/20 06:04:37;;;;;;;15.37;12.47;;;4.70;71.00;;;;;;5072007;28;20162;-47
2022/03/20 06:07:03;;;;;;;13.90;12.10;;;4.80;70.80;;;;;;5071290;28;20190;-48
2022/03/20 06:09:30;;;;;;;15.17;12.93;;;4.80;70.70;;;;;;5074425;28;20175;-48
2022/03/20 06:11:56;;;;;;;14.80;12.60;;;4.90;70.80;;;;;;5092713;28;20198;-48
2022/03/20 06:14:22;;;;;;;15.00;12.87;;;4.90;70.90;;;;;;5076419;28;20257;-51
2022/03/20 06:16:48;;;;;;;15.60;12.60;;;5.00;70.40;;;;;;5094752;28;20234;-51
2022/03/20 06:19:15;;;;;;;14.90;13.07;;;5.00;70.40;;;;;;5089717;28;20738;-47
2022/03/20 06:21:42;;;;;;;14.37;12.43;;;5.10;70.20;;;;;;5074202;28;20186;-49
2022/03/20 06:24:08;;;;;;;15.43;13.03;;;5.20;69.70;;;;;;5072858;28;20180;-47
2022/03/20 06:26:34;;;;;;;16.20;12.13;;;5.30;70.10;;;;;;5073898;28;20178;-49
2022/03/20 06:29:00;;;;;;;15.40;12.13;;;5.30;69.80;;;;;;5074366;28;20167;-48
2022/03/20 06:31:26;;;;;;;14.80;12.17;;;5.40;69.90;;;;;;5074055;28;20590;-47
2022/03/20 06:33:54;;;;;;;16.27;12.67;;;5.40;69.60;;;;;;5074016;28;20197;-47
2022/03/20 06:36:19;;;;;;;15.77;11.93;;;5.50;69.10;;;;;;5074286;28;20162;-47
2022/03/20 06:38:45;;;;;;;15.47;12.07;;;5.50;69.50;;;;;;5074159;28;20710;-47
2022/03/20 06:41:10;;;;;;;14.47;11.80;;;5.60;69.60;;;;;;5056213;28;20281;-50
2022/03/20 06:43:37;;;;;;;14.67;11.90;;;5.70;68.90;;;;;;5073299;28;20178;-49
2022/03/20 06:46:05;;;;;;;14.07;12.40;;;5.70;68.30;;;;;;5072789;28;20171;-50
2022/03/20 06:48:31;;;;;;;14.87;12.50;;;5.80;68.10;;;;;;5067967;28;20186;-50
2022/03/20 06:50:56;;;;;;;14.50;12.00;;;5.80;68.10;;;;;;5072635;28;20550;-50
2022/03/20 06:53:22;;;;;;;14.93;11.77;;;5.90;68.30;;;;;;5073534;28;20249;-48
2022/03/20 06:55:48;;;;;;;13.17;11.77;;;5.90;68.20;;;;;;5074088;28;20162;-48
2022/03/20 06:58:15;;;;;;;16.27;12.60;;;6.00;67.30;;;;;;5073496;28;20162;-48
2022/03/20 07:00:41;;;;;;;17.00;13.70;;;6.10;67.50;;;;;;5073560;28;20272;-48
2022/03/20 07:03:08;;;;;;;15.10;12.43;;;6.10;66.90;;;;;;5073184;28;20199;-47
2022/03/20 07:05:34;;;;;;;14.60;12.50;;;6.20;67.10;;;;;;5073658;28;20170;-47
2022/03/20 07:08:01;;;;;;;15.33;12.57;;;6.20;67.50;;;;;;5073716;28;20637;-47
2022/03/20 07:10:27;;;;;;;13.23;11.70;;;6.30;67.80;;;;;;5073631;28;20181;-49
2022/03/20 07:15:41;;;;;;;14.67;11.77;;;6.50;65.50;;;;;;5071480;28;20186;-48
2022/03/20 07:18:08;;;;;;;15.00;12.57;;;6.50;65.90;;;;;;5072325;28;20181;-48
2022/03/20 07:20:34;;;;;;;14.17;12.43;;;6.60;65.80;;;;;;5072920;28;20714;-47
2022/03/20 07:23:00;;;;;;;13.10;11.47;;;6.60;65.50;;;;;;5072609;28;20280;-48
2022/03/20 07:30:56;;;;;;;14.90;12.40;;;6.90;64.90;;;;;;5072645;28;20182;-51
2022/03/20 07:33:23;;;;;;;14.17;12.60;;;7.00;64.40;;;;;;5072642;28;20671;-47
2022/03/20 07:35:49;;;;;;;13.57;11.33;;;7.00;63.60;;;;;;5072853;28;20665;-48
2022/03/20 07:38:15;;;;;;;15.90;13.20;;;7.00;63.90;;;;;;5072810;28;20178;-49
2022/03/20 07:40:41;;;;;;;13.53;12.13;;;7.20;64.50;;;;;;5072514;28;20679;-48
2022/03/20 07:43:06;;;;;;;13.67;12.07;;;7.20;63.40;;;;;;5072347;28;20238;-48
2022/03/20 07:45:32;;;;;;;14.90;11.93;;;7.30;63.30;;;;;;5072541;28;20216;-50
2022/03/20 07:47:58;;;;;;;14.03;12.43;;;7.50;63.00;;;;;;5054528;28;20178;-51
2022/03/20 07:50:23;;;;;;;12.87;11.20;;;7.60;62.30;;;;;;5072467;28;20170;-49
2022/03/20 07:52:50;;;;;;;17.37;12.33;;;7.70;61.70;;;;;;5053925;28;20252;-49
2022/03/20 07:55:17;;;;;;;13.00;11.17;;;7.70;61.10;;;;;;5072516;28;20185;-51
2022/03/20 07:57:42;;;;;;;13.63;11.80;;;7.80;61.70;;;;;;5072394;28;20198;-53
2022/03/20 08:00:09;;;;;;;13.47;11.67;;;7.90;61.30;;;;;;5072315;28;20674;-49
2022/03/20 08:02:34;;;;;;;13.27;11.80;;;8.00;60.80;;;;;;5071984;28;20189;-49
2022/03/20 08:05:00;;;;;;;13.67;12.27;;;8.00;59.80;;;;;;5054514;28;20170;-47
2022/03/20 08:07:26;;;;;;;14.47;11.63;;;8.10;59.80;;;;;;5072254;28;20223;-48
2022/03/20 08:09:52;;;;;;;13.27;11.70;;;8.20;60.10;;;;;;5072193;28;20170;-51
2022/03/20 08:12:17;;;;;;;13.23;11.50;;;8.30;59.50;;;;;;5071789;28;20182;-53
2022/03/20 08:14:44;;;;;;;14.63;11.53;;;8.50;58.90;;;;;;5072248;28;20182;-49
2022/03/20 08:17:10;;;;;;;13.23;11.13;;;8.60;58.30;;;;;;5072125;28;20551;-49
2022/03/20 08:19:36;;;;;;;13.00;11.50;;;8.70;58.00;;;;;;5072201;28;20194;-50
2022/03/20 08:22:05;;;;;;;13.10;11.30;;;8.80;58.50;;;;;;5071639;28;20198;-48
2022/03/20 08:24:31;;;;;;;14.43;11.40;;;9.00;57.70;;;;;;5071894;28;20174;-48
2022/03/20 08:26:57;;;;;;;13.90;12.03;;;9.00;57.30;;;;;;5072026;28;20516;-51
2022/03/20 08:29:23;;;;;;;13.50;11.60;;;9.10;57.80;;;;;;5071168;28;20189;-48
2022/03/20 08:31:49;;;;;;;13.80;12.33;;;9.10;57.80;;;;;;5071860;28;20654;-50
2022/03/20 08:34:15;;;;;;;12.97;11.60;;;9.10;56.70;;;;;;5071691;28;20177;-51
2022/03/20 08:36:43;;;;;;;12.60;11.00;;;9.20;57.20;;;;;;5071883;28;20179;-50
2022/03/20 08:39:08;;;;;;;12.60;11.20;;;9.40;57.00;;;;;;5067890;28;20210;-52
2022/03/20 08:41:35;;;;;;;11.93;10.50;;;9.60;56.20;;;;;;5071502;28;20285;-52
2022/03/20 08:44:05;;;;;;;12.60;11.30;;;9.70;56.00;;;;;;5070949;28;20603;-46
2022/03/20 08:46:31;;;;;;;12.23;10.40;;;9.80;55.40;;;;;;5071467;28;20170;-50
2022/03/20 08:48:57;;;;;;;12.83;10.53;;;10.00;54.60;;;;;;5071308;28;20252;-48
2022/03/20 08:51:23;;;;;;;11.53;10.33;;;10.10;54.10;;;;;;5071445;28;21049;-48
2022/03/20 08:53:49;;;;;;;12.77;10.73;;;10.30;53.50;;;;;;5071189;28;20253;-48
2022/03/20 08:56:15;;;;;;;11.83;10.63;;;10.40;54.50;;;;;;5071492;28;20180;-48
2022/03/20 08:58:41;;;;;;;14.40;10.70;;;10.50;53.00;;;;;;5071410;28;20621;-50
2022/03/20 09:01:07;;;;;;;12.13;10.60;;;10.70;53.20;;;;;;5071238;28;20528;-49
2022/03/20 09:03:33;;;;;;;13.30;11.00;;;10.90;52.50;;;;;;5053501;28;20166;-49
2022/03/20 09:05:59;;;;;;;13.37;11.27;;;11.00;52.30;;;;;;5071467;28;20173;-51
2022/03/20 09:08:24;;;;;;;11.70;10.50;;;11.00;51.30;;;;;;5071907;28;20691;-51
2022/03/20 09:10:51;;;;;;;12.63;11.27;;;11.00;51.70;;;;;;5071349;28;20183;-52
2022/03/20 09:13:17;;;;;;;12.97;10.87;;;11.10;52.10;;;;;;5070952;28;20233;-49
2022/03/20 09:15:43;;;;;;;12.00;10.80;;;11.10;51.30;;;;;;5071381;28;20549;-50
2022/03/20 09:20:52;;;;;;;11.10;9.90;;;11.50;51.40;;;;;;5071303;28;20213;-48
2022/03/20 09:23:18;;;;;;;11.43;10.23;;;11.80;51.00;;;;;;5071342;28;20167;-51
2022/03/20 09:25:44;;;;;;;11.57;10.37;;;12.00;49.60;;;;;;5071416;28;20175;-52
2022/03/20 09:28:11;;;;;;;11.20;10.00;;;12.30;49.40;;;;;;5071589;28;20247;-49
2022/03/20 09:30:39;;;;;;;11.60;10.40;;;12.40;48.60;;;;;;5071273;28;20186;-53
2022/03/20 09:33:06;;;;;;;12.17;10.97;;;12.70;48.10;;;;;;5070763;28;20202;-48
2022/03/20 09:35:32;;;;;;;11.23;9.93;;;13.00;47.30;;;;;;5071339;28;20259;-52
2022/03/20 09:37:58;;;;;;;12.57;10.50;;;13.20;46.90;;;;;;5070932;28;20185;-48
2022/03/20 09:40:24;;;;;;;11.43;10.23;;;13.30;45.80;;;;;;5071425;28;20208;-50
2022/03/20 09:42:50;;;;;;;11.60;10.07;;;13.70;46.20;;;;;;5074516;28;20665;-48
2022/03/20 09:45:18;;;;;;;10.77;9.50;;;14.10;45.00;;;;;;5075171;28;20189;-49
2022/03/20 09:47:44;;;;;;;11.13;9.93;;;14.60;44.30;;;;;;5074836;28;20182;-48
2022/03/20 09:50:12;;;;;;;11.07;9.97;;;15.00;44.10;;;;;;5074962;28;20179;-50
2022/03/20 09:52:39;;;;;;;11.43;9.70;;;15.50;43.00;;;;;;5072546;28;20244;-52
2022/03/20 09:55:07;;;;;;;11.77;10.67;;;15.90;43.00;;;;;;5074478;28;20184;-50
2022/03/20 09:57:32;;;;;;;10.97;9.87;;;16.50;41.30;;;;;;5073132;28;20194;-53
2022/03/20 10:00:03;;;;;;;10.73;8.83;;;17.20;41.10;;;;;;5074156;28;20669;-52
2022/03/20 10:02:29;;;;;;;11.00;9.90;;;18.00;40.10;;;;;;5071825;28;20202;-50
2022/03/20 10:05:05;;;;;;;10.93;9.93;;;18.60;38.20;;;;;;5074235;28;20183;-53
2022/03/20 10:07:38;;;;;;;10.50;9.50;;;19.00;36.80;;;;;;5074210;28;20601;-52
2022/03/20 10:10:06;;;;;;;11.20;10.13;;;19.20;37.30;;;;;;5074326;28;20520;-49
2022/03/20 10:12:33;;;;;;;11.17;10.07;;;19.60;36.90;;;;;;5073600;28;20206;-49
2022/03/20 10:14:59;;;;;;;11.27;10.17;;;20.10;35.60;;;;;;5074315;28;20222;-51
2022/03/20 10:17:24;;;;;;;11.18;10.07;;;20.70;35.50;;;;;;5074381;28;20191;-51
2022/03/20 10:19:50;;;;;;;10.68;9.68;;;21.40;34.60;;;;;;5073900;28;20206;-49
2022/03/20 10:22:17;;;;;;;11.85;9.45;;;21.90;33.70;;;;;;5074051;28;20198;-52
2022/03/20 10:24:51;;;;;;;10.88;9.43;;;22.20;33.70;;;;;;5073568;28;20166;-54
2022/03/20 10:27:17;;;;;;;10.07;9.07;;;22.60;32.70;;;;;;5074402;28;20519;-52
2022/03/20 10:29:47;;;;;;;9.80;8.90;;;22.70;33.00;;;;;;5074341;28;20174;-55
2022/03/20 10:32:13;;;;;;;10.73;9.57;;;22.90;32.40;;;;;;5074272;28;20280;-49
2022/03/20 10:34:52;;;;;;;9.73;8.88;;;22.50;30.60;;;;;;5073998;28;20266;-53
2022/03/20 10:37:19;;;;;;;9.70;8.80;;;21.90;32.70;;;;;;5073862;28;20209;-50
2022/03/20 10:39:45;;;;;;;9.68;8.80;;;22.30;32.10;;;;;;5073862;28;20601;-52
2022/03/20 10:42:15;;;;;;;9.55;8.73;;;23.00;31.20;;;;;;5073844;28;20187;-53
2022/03/20 10:44:41;;;;;;;9.38;8.48;;;23.20;31.40;;;;;;5073775;28;20170;-52
2022/03/20 10:47:10;;;;;;;10.18;9.27;;;23.70;31.00;;;;;;5074244;28;20622;-50
2022/03/20 10:49:37;;;;;;;8.88;8.07;;;23.10;29.80;;;;;;5073370;28;20281;-48
2022/03/20 10:52:04;;;;;;;9.48;8.68;;;22.90;31.00;;;;;;5073009;28;20736;-49
2022/03/20 10:54:43;;;;;;;9.25;8.43;;;23.40;30.80;;;;;;5073781;28;20224;-49
2022/03/20 10:57:11;;;;;;;9.73;8.82;;;24.10;30.10;;;;;;5073807;28;20699;-47
2022/03/20 10:59:39;;;;;;;9.32;8.52;;;24.60;29.60;;;;;;5073836;28;20194;-48
2022/03/20 11:02:08;;;;;;;9.30;8.50;;;25.10;29.30;;;;;;5073521;28;20197;-54
2022/03/20 11:04:34;;;;;;;8.82;8.07;;;25.50;28.80;;;;;;5073483;28;20167;-50
2022/03/20 11:07:00;;;;;;;10.15;9.15;;;25.80;28.40;;;;;;5073369;28;20174;-52
2022/03/20 11:09:27;;;;;;;9.27;8.48;;;25.90;27.80;;;;;;5073507;28;20249;-50
2022/03/20 11:12:02;;;;;;;9.75;8.13;;;26.20;28.00;;;;;;5073079;28;20210;-50
2022/03/20 11:14:28;;;;;;;9.57;8.30;;;26.00;28.00;;;;;;5101460;22;20230;-48
2022/03/20 11:17:01;;;;;;;9.43;8.52;;;26.10;27.60;;;;;;5050718;28;20186;-51
2022/03/20 11:19:33;;;;;;;8.55;7.85;;;26.10;27.30;;;;;;5052085;28;20187;-50
2022/03/20 11:22:10;;;;;;;9.68;8.77;;;26.00;27.20;;;;;;5052683;28;20202;-51
2022/03/20 11:24:37;;;;;;;9.02;8.13;;;25.90;26.70;;;;;;5052010;28;20275;-53
2022/03/20 11:27:05;;;;;;;9.70;8.88;;;25.90;27.20;;;;;;5052999;28;20187;-50
2022/03/20 11:29:48;;;;;;;9.15;8.35;;;25.90;27.20;;;;;;5052901;28;20286;-55
2022/03/20 11:32:15;;;;;;;9.15;8.20;;;25.20;27.30;;;;;;5043693;28;20210;-50
2022/03/20 11:34:44;;;;;;;9.13;8.20;;;25.30;27.80;;;;;;5032723;28;20246;-51
2022/03/20 11:37:11;;;;;;;8.90;8.02;;;25.70;27.00;;;;;;5032874;28;20164;-52
2022/03/20 11:39:39;;;;;;;9.20;8.30;;;25.70;26.70;;;;;;5033077;28;20187;-52
2022/03/20 11:42:27;;;;;;;9.32;8.52;;;25.40;26.90;;;;;;5032924;28;20175;-53
2022/03/20 11:44:59;;;;;;;9.10;8.27;;;24.90;26.50;;;;;;5032842;28;20242;-51
2022/03/20 11:47:29;;;;;;;8.98;8.18;;;25.00;27.30;;;;;;5032860;28;20580;-53
2022/03/20 11:50:21;;;;;;;8.90;7.97;;;25.40;26.80;;;;;;5032293;28;20219;-50
2022/03/20 11:52:50;;;;;;;8.30;7.50;;;25.80;26.60;;;;;;5032198;28;20176;-52
2022/03/20 11:55:40;;;;;;;8.63;7.88;;;26.30;27.00;;;;;;5032513;28;20196;-53
2022/03/20 11:58:09;;;;;;;8.70;7.90;;;26.70;25.60;;;;;;5032567;28;20176;-51
2022/03/20 12:00:40;;;;;;;10.05;7.35;;;26.70;25.60;;;;;;5032678;28;20174;-51
2022/03/20 12:03:13;;;;;;;8.30;7.60;;;26.50;25.30;;;;;;5032323;28;20171;-53
2022/03/20 12:05:41;;;;;;;7.95;7.22;;;26.30;25.60;;;;;;5032479;28;20237;-53
2022/03/20 12:08:40;;;;;;;8.43;7.72;;;25.90;26.00;;;;;;5032323;28;20172;-53
2022/03/20 12:11:24;;;;;;;8.73;7.93;;;25.60;27.00;;;;;;5031920;28;20199;-53
2022/03/20 12:14:19;;;;;;;8.25;7.45;;;25.80;25.90;;;;;;5031506;28;20254;-52
2022/03/20 12:16:45;;;;;;;9.18;8.32;;;26.20;25.80;;;;;;5032678;28;20517;-53
2022/03/20 12:19:13;;;;;;;8.02;7.32;;;26.30;25.40;;;;;;5032476;28;20631;-50
2022/03/20 12:21:58;;;;;;;8.50;7.68;;;26.60;25.70;;;;;;5032432;28;20187;-51
2022/03/20 12:24:35;;;;;;;9.57;8.23;;;25.80;25.40;;;;;;5031596;28;20393;-54
2022/03/20 12:27:20;;;;;;;9.15;7.88;;;25.20;25.60;;;;;;5032394;28;20536;-52
2022/03/20 12:29:47;;;;;;;8.15;7.45;;;25.10;26.00;;;;;;5032157;28;20200;-51
2022/03/20 12:32:15;;;;;;;8.57;7.78;;;24.90;26.00;;;;;;5032781;28;20234;-54
2022/03/20 12:35:04;;;;;;;9.55;8.25;;;24.30;25.90;;;;;;5032740;28;20238;-51
2022/03/20 12:37:30;;;;;;;8.75;7.85;;;23.80;26.00;;;;;;5032153;28;20176;-52
2022/03/20 12:40:18;;;;;;;8.77;7.97;;;23.70;25.80;;;;;;5029334;28;20670;-53
2022/03/20 12:42:57;;;;;;;8.52;7.82;;;24.00;25.90;;;;;;5031333;28;20183;-51
2022/03/20 12:45:25;;;;;;;8.68;7.78;;;24.30;26.20;;;;;;5024524;28;20200;-52
2022/03/20 12:48:02;;;;;;;8.45;7.65;;;23.90;26.00;;;;;;5031614;28;20180;-50
2022/03/20 12:50:31;;;;;;;8.82;8.00;;;23.20;26.30;;;;;;5031846;28;20552;-49
2022/03/20 12:53:15;;;;;;;8.98;8.02;;;23.40;26.30;;;;;;5031600;28;20214;-51
2022/03/20 12:55:42;;;;;;;9.43;8.57;;;23.30;26.30;;;;;;5031367;28;20542;-49
2022/03/20 12:58:14;;;;;;;9.93;8.23;;;22.80;26.10;;;;;;5031447;28;20183;-50
2022/03/20 13:00:40;;;;;;;8.68;7.88;;;22.40;26.50;;;;;;5032155;28;20267;-54
2022/03/20 13:03:07;;;;;;;9.48;8.48;;;22.60;26.80;;;;;;5031415;28;20173;-52
2022/03/20 13:05:57;;;;;;;8.93;8.10;;;22.30;26.60;;;;;;5031665;28;20195;-50
2022/03/20 13:08:33;;;;;;;8.93;8.02;;;22.10;26.60;;;;;;5031567;28;20503;-49
2022/03/20 13:11:00;;;;;;;9.35;8.45;;;22.10;26.80;;;;;;5030843;28;20199;-53
2022/03/20 13:13:33;;;;;;;9.07;8.18;;;22.10;26.50;;;;;;5030876;28;20645;-51